sensor_id;sensor_type;location;lat;lon;timestamp;P1;durP1;ratioP1;P2;durP2;ratioP2
69750;SDS011;57335;52.288;6.056;2022-07-06T00:00:51;4.85;;;1.50;;
69750;SDS011;57335;52.288;6.056;2022-07-06T00:03:18;4.18;;;1.35;;
69750;SDS011;57335;52.288;6.056;2022-07-06T00:05:45;4.13;;;1.40;;
69750;SDS011;57335;52.288;6.056;2022-07-06T00:08:11;3.30;;;1.40;;
69750;SDS011;57335;52.288;6.056;2022-07-06T00:10:38;5.22;;;1.95;;
69750;SDS011;57335;52.288;6.056;2022-07-06T00:13:04;7.05;;;1.95;;
69750;SDS011;57335;52.288;6.056;2022-07-06T00:15:31;6.25;;;1.92;;
69750;SDS011;57335;52.288;6.056;2022-07-06T00:17:57;5.40;;;1.80;;
69750;SDS011;57335;52.288;6.056;2022-07-06T00:20:23;5.05;;;1.60;;
69750;SDS011;57335;52.288;6.056;2022-07-06T00:22:50;7.00;;;1.70;;
69750;SDS011;57335;52.288;6.056;2022-07-06T00:25:16;3.53;;;1.38;;
69750;SDS011;57335;52.288;6.056;2022-07-06T00:27:43;5.75;;;1.65;;
69750;SDS011;57335;52.288;6.056;2022-07-06T00:30:10;5.28;;;1.55;;
69750;SDS011;57335;52.288;6.056;2022-07-06T00:32:37;4.35;;;1.50;;
69750;SDS011;57335;52.288;6.056;2022-07-06T00:35:03;4.53;;;1.60;;
69750;SDS011;57335;52.288;6.056;2022-07-06T00:37:30;6.50;;;1.80;;
69750;SDS011;57335;52.288;6.056;2022-07-06T00:39:57;5.57;;;1.83;;
69750;SDS011;57335;52.288;6.056;2022-07-06T00:42:23;4.97;;;1.50;;
69750;SDS011;57335;52.288;6.056;2022-07-06T00:44:50;6.07;;;1.40;;
69750;SDS011;57335;52.288;6.056;2022-07-06T00:47:16;4.20;;;1.50;;
69750;SDS011;57335;52.288;6.056;2022-07-06T00:49:43;2.97;;;1.40;;
69750;SDS011;57335;52.288;6.056;2022-07-06T00:52:10;4.20;;;1.45;;
69750;SDS011;57335;52.288;6.056;2022-07-06T00:54:37;4.53;;;1.52;;
69750;SDS011;57335;52.288;6.056;2022-07-06T00:57:07;4.35;;;1.48;;
69750;SDS011;57335;52.288;6.056;2022-07-06T00:59:34;3.05;;;1.30;;
69750;SDS011;57335;52.288;6.056;2022-07-06T01:02:01;4.75;;;1.60;;
69750;SDS011;57335;52.288;6.056;2022-07-06T01:04:28;6.45;;;1.40;;
69750;SDS011;57335;52.288;6.056;2022-07-06T01:06:54;5.50;;;1.60;;
69750;SDS011;57335;52.288;6.056;2022-07-06T01:09:22;4.75;;;1.40;;
69750;SDS011;57335;52.288;6.056;2022-07-06T01:11:49;4.72;;;1.35;;
69750;SDS011;57335;52.288;6.056;2022-07-06T01:14:17;4.95;;;1.45;;
69750;SDS011;57335;52.288;6.056;2022-07-06T01:16:46;3.95;;;1.30;;
69750;SDS011;57335;52.288;6.056;2022-07-06T01:19:13;5.95;;;1.60;;
69750;SDS011;57335;52.288;6.056;2022-07-06T01:21:39;6.38;;;1.60;;
69750;SDS011;57335;52.288;6.056;2022-07-06T01:24:06;4.53;;;1.40;;
69750;SDS011;57335;52.288;6.056;2022-07-06T01:26:32;4.28;;;1.55;;
69750;SDS011;57335;52.288;6.056;2022-07-06T01:28:59;2.85;;;1.30;;
69750;SDS011;57335;52.288;6.056;2022-07-06T01:31:26;5.03;;;1.60;;
69750;SDS011;57335;52.288;6.056;2022-07-06T01:33:54;6.38;;;1.65;;
69750;SDS011;57335;52.288;6.056;2022-07-06T01:36:22;5.30;;;1.58;;
69750;SDS011;57335;52.288;6.056;2022-07-06T01:38:50;4.88;;;1.70;;
69750;SDS011;57335;52.288;6.056;2022-07-06T01:41:21;4.97;;;1.45;;
69750;SDS011;57335;52.288;6.056;2022-07-06T01:43:47;3.45;;;1.40;;
69750;SDS011;57335;52.288;6.056;2022-07-06T01:46:14;15.32;;;1.95;;
69750;SDS011;57335;52.288;6.056;2022-07-06T01:48:41;4.70;;;1.60;;
69750;SDS011;57335;52.288;6.056;2022-07-06T01:51:08;5.93;;;1.50;;
69750;SDS011;57335;52.288;6.056;2022-07-06T01:53:35;4.65;;;1.75;;
69750;SDS011;57335;52.288;6.056;2022-07-06T01:56:01;4.57;;;1.35;;
69750;SDS011;57335;52.288;6.056;2022-07-06T01:58:28;4.82;;;1.30;;
69750;SDS011;57335;52.288;6.056;2022-07-06T02:00:55;4.10;;;1.15;;
69750;SDS011;57335;52.288;6.056;2022-07-06T02:03:22;4.38;;;1.50;;
69750;SDS011;57335;52.288;6.056;2022-07-06T02:05:48;3.45;;;1.40;;
69750;SDS011;57335;52.288;6.056;2022-07-06T02:08:15;4.53;;;1.48;;
69750;SDS011;57335;52.288;6.056;2022-07-06T02:10:42;3.67;;;1.38;;
69750;SDS011;57335;52.288;6.056;2022-07-06T02:13:08;5.13;;;1.50;;
69750;SDS011;57335;52.288;6.056;2022-07-06T02:15:35;4.50;;;1.38;;
69750;SDS011;57335;52.288;6.056;2022-07-06T02:18:02;4.13;;;1.40;;
69750;SDS011;57335;52.288;6.056;2022-07-06T02:20:29;5.18;;;1.55;;
69750;SDS011;57335;52.288;6.056;2022-07-06T02:22:55;4.20;;;1.45;;
69750;SDS011;57335;52.288;6.056;2022-07-06T02:25:22;5.63;;;1.60;;
69750;SDS011;57335;52.288;6.056;2022-07-06T02:27:48;5.60;;;1.30;;
69750;SDS011;57335;52.288;6.056;2022-07-06T02:30:15;4.93;;;1.52;;
69750;SDS011;57335;52.288;6.056;2022-07-06T02:32:42;6.05;;;1.48;;
69750;SDS011;57335;52.288;6.056;2022-07-06T02:35:08;6.28;;;1.50;;
69750;SDS011;57335;52.288;6.056;2022-07-06T02:37:35;5.93;;;1.70;;
69750;SDS011;57335;52.288;6.056;2022-07-06T02:40:02;4.40;;;1.65;;
69750;SDS011;57335;52.288;6.056;2022-07-06T02:42:28;5.72;;;1.73;;
69750;SDS011;57335;52.288;6.056;2022-07-06T02:44:55;5.00;;;1.85;;
69750;SDS011;57335;52.288;6.056;2022-07-06T02:47:21;4.90;;;1.70;;
69750;SDS011;57335;52.288;6.056;2022-07-06T02:49:48;7.70;;;2.08;;
69750;SDS011;57335;52.288;6.056;2022-07-06T02:52:14;5.43;;;1.90;;
69750;SDS011;57335;52.288;6.056;2022-07-06T02:54:41;6.88;;;2.13;;
69750;SDS011;57335;52.288;6.056;2022-07-06T02:57:08;4.88;;;1.85;;
69750;SDS011;57335;52.288;6.056;2022-07-06T02:59:34;6.97;;;1.95;;
69750;SDS011;57335;52.288;6.056;2022-07-06T03:02:01;4.95;;;1.90;;
69750;SDS011;57335;52.288;6.056;2022-07-06T03:04:27;4.72;;;1.60;;
69750;SDS011;57335;52.288;6.056;2022-07-06T03:06:54;5.18;;;1.70;;
69750;SDS011;57335;52.288;6.056;2022-07-06T03:09:20;6.18;;;1.67;;
69750;SDS011;57335;52.288;6.056;2022-07-06T03:11:47;6.93;;;1.73;;
69750;SDS011;57335;52.288;6.056;2022-07-06T03:14:13;5.65;;;2.00;;
69750;SDS011;57335;52.288;6.056;2022-07-06T03:16:40;6.45;;;2.00;;
69750;SDS011;57335;52.288;6.056;2022-07-06T03:19:12;4.57;;;1.70;;
69750;SDS011;57335;52.288;6.056;2022-07-06T03:21:38;5.25;;;1.73;;
69750;SDS011;57335;52.288;6.056;2022-07-06T03:24:05;6.80;;;2.00;;
69750;SDS011;57335;52.288;6.056;2022-07-06T03:26:31;4.90;;;1.73;;
69750;SDS011;57335;52.288;6.056;2022-07-06T03:28:58;5.82;;;2.00;;
69750;SDS011;57335;52.288;6.056;2022-07-06T03:31:24;6.00;;;2.00;;
69750;SDS011;57335;52.288;6.056;2022-07-06T03:33:51;5.07;;;1.88;;
69750;SDS011;57335;52.288;6.056;2022-07-06T03:36:18;6.70;;;1.90;;
69750;SDS011;57335;52.288;6.056;2022-07-06T03:38:44;6.90;;;2.15;;
69750;SDS011;57335;52.288;6.056;2022-07-06T03:41:11;6.80;;;1.98;;
69750;SDS011;57335;52.288;6.056;2022-07-06T03:43:38;5.72;;;1.95;;
69750;SDS011;57335;52.288;6.056;2022-07-06T03:46:04;5.15;;;1.80;;
69750;SDS011;57335;52.288;6.056;2022-07-06T03:48:31;6.05;;;1.60;;
69750;SDS011;57335;52.288;6.056;2022-07-06T03:50:57;3.85;;;1.65;;
69750;SDS011;57335;52.288;6.056;2022-07-06T03:53:24;5.25;;;1.80;;
69750;SDS011;57335;52.288;6.056;2022-07-06T03:55:51;5.05;;;1.70;;
69750;SDS011;57335;52.288;6.056;2022-07-06T03:58:18;5.90;;;2.20;;
69750;SDS011;57335;52.288;6.056;2022-07-06T04:00:45;5.35;;;1.80;;
69750;SDS011;57335;52.288;6.056;2022-07-06T04:03:11;6.68;;;1.85;;
69750;SDS011;57335;52.288;6.056;2022-07-06T04:05:38;4.45;;;1.60;;
69750;SDS011;57335;52.288;6.056;2022-07-06T04:08:05;3.63;;;1.67;;
69750;SDS011;57335;52.288;6.056;2022-07-06T04:10:31;4.90;;;1.70;;
69750;SDS011;57335;52.288;6.056;2022-07-06T04:12:58;6.93;;;1.70;;
69750;SDS011;57335;52.288;6.056;2022-07-06T04:15:24;6.00;;;1.70;;
69750;SDS011;57335;52.288;6.056;2022-07-06T04:17:51;4.53;;;1.60;;
69750;SDS011;57335;52.288;6.056;2022-07-06T04:20:17;5.90;;;1.70;;
69750;SDS011;57335;52.288;6.056;2022-07-06T04:22:45;4.90;;;1.88;;
69750;SDS011;57335;52.288;6.056;2022-07-06T04:25:12;6.90;;;2.17;;
69750;SDS011;57335;52.288;6.056;2022-07-06T04:27:38;4.63;;;1.80;;
69750;SDS011;57335;52.288;6.056;2022-07-06T04:30:05;5.72;;;1.67;;
69750;SDS011;57335;52.288;6.056;2022-07-06T04:32:32;4.95;;;1.80;;
69750;SDS011;57335;52.288;6.056;2022-07-06T04:34:59;5.10;;;1.70;;
69750;SDS011;57335;52.288;6.056;2022-07-06T04:37:25;5.78;;;1.80;;
69750;SDS011;57335;52.288;6.056;2022-07-06T04:39:52;6.25;;;1.65;;
69750;SDS011;57335;52.288;6.056;2022-07-06T04:42:18;5.32;;;1.80;;
69750;SDS011;57335;52.288;6.056;2022-07-06T04:44:45;5.40;;;1.50;;
69750;SDS011;57335;52.288;6.056;2022-07-06T04:47:12;6.90;;;1.50;;
69750;SDS011;57335;52.288;6.056;2022-07-06T04:49:39;3.72;;;1.48;;
69750;SDS011;57335;52.288;6.056;2022-07-06T04:52:06;5.40;;;1.60;;
69750;SDS011;57335;52.288;6.056;2022-07-06T04:54:32;4.03;;;1.40;;
69750;SDS011;57335;52.288;6.056;2022-07-06T04:57:00;6.72;;;1.40;;
69750;SDS011;57335;52.288;6.056;2022-07-06T04:59:26;4.22;;;1.50;;
69750;SDS011;57335;52.288;6.056;2022-07-06T05:01:54;3.28;;;1.20;;
69750;SDS011;57335;52.288;6.056;2022-07-06T05:04:20;3.47;;;1.40;;
69750;SDS011;57335;52.288;6.056;2022-07-06T05:06:47;4.20;;;1.23;;
69750;SDS011;57335;52.288;6.056;2022-07-06T05:09:13;4.63;;;1.30;;
69750;SDS011;57335;52.288;6.056;2022-07-06T05:11:40;4.70;;;1.40;;
69750;SDS011;57335;52.288;6.056;2022-07-06T05:14:07;5.38;;;1.40;;
69750;SDS011;57335;52.288;6.056;2022-07-06T05:16:33;4.15;;;1.30;;
69750;SDS011;57335;52.288;6.056;2022-07-06T05:19:00;4.72;;;1.38;;
69750;SDS011;57335;52.288;6.056;2022-07-06T05:21:27;6.50;;;1.50;;
69750;SDS011;57335;52.288;6.056;2022-07-06T05:23:53;4.85;;;1.50;;
69750;SDS011;57335;52.288;6.056;2022-07-06T05:26:20;4.13;;;1.38;;
69750;SDS011;57335;52.288;6.056;2022-07-06T05:28:46;6.03;;;1.50;;
69750;SDS011;57335;52.288;6.056;2022-07-06T05:31:13;3.83;;;1.40;;
69750;SDS011;57335;52.288;6.056;2022-07-06T05:33:40;3.88;;;1.30;;
69750;SDS011;57335;52.288;6.056;2022-07-06T05:36:06;3.80;;;1.30;;
69750;SDS011;57335;52.288;6.056;2022-07-06T05:38:33;4.25;;;1.20;;
69750;SDS011;57335;52.288;6.056;2022-07-06T05:40:59;9.70;;;1.38;;
69750;SDS011;57335;52.288;6.056;2022-07-06T05:43:26;2.40;;;1.00;;
69750;SDS011;57335;52.288;6.056;2022-07-06T05:45:52;3.63;;;1.60;;
69750;SDS011;57335;52.288;6.056;2022-07-06T05:48:19;3.83;;;1.33;;
69750;SDS011;57335;52.288;6.056;2022-07-06T05:50:46;5.35;;;1.30;;
69750;SDS011;57335;52.288;6.056;2022-07-06T05:53:12;3.92;;;1.25;;
69750;SDS011;57335;52.288;6.056;2022-07-06T05:55:45;4.35;;;1.20;;
69750;SDS011;57335;52.288;6.056;2022-07-06T05:58:13;4.45;;;1.48;;
69750;SDS011;57335;52.288;6.056;2022-07-06T06:00:39;3.45;;;1.10;;
69750;SDS011;57335;52.288;6.056;2022-07-06T06:03:06;3.33;;;1.10;;
69750;SDS011;57335;52.288;6.056;2022-07-06T06:05:33;4.90;;;1.33;;
69750;SDS011;57335;52.288;6.056;2022-07-06T06:08:00;2.25;;;1.08;;
69750;SDS011;57335;52.288;6.056;2022-07-06T06:10:26;3.17;;;1.10;;
69750;SDS011;57335;52.288;6.056;2022-07-06T06:12:53;4.10;;;1.20;;
69750;SDS011;57335;52.288;6.056;2022-07-06T06:15:19;5.68;;;1.20;;
69750;SDS011;57335;52.288;6.056;2022-07-06T06:17:46;3.10;;;0.93;;
69750;SDS011;57335;52.288;6.056;2022-07-06T06:20:13;4.25;;;0.90;;
69750;SDS011;57335;52.288;6.056;2022-07-06T06:22:47;4.10;;;1.00;;
69750;SDS011;57335;52.288;6.056;2022-07-06T06:25:16;2.75;;;1.17;;
69750;SDS011;57335;52.288;6.056;2022-07-06T06:27:43;4.60;;;1.10;;
69750;SDS011;57335;52.288;6.056;2022-07-06T06:30:11;3.42;;;1.08;;
69750;SDS011;57335;52.288;6.056;2022-07-06T06:32:39;4.70;;;1.00;;
69750;SDS011;57335;52.288;6.056;2022-07-06T06:35:06;2.67;;;1.02;;
69750;SDS011;57335;52.288;6.056;2022-07-06T06:37:33;5.07;;;1.00;;
69750;SDS011;57335;52.288;6.056;2022-07-06T06:40:00;3.88;;;1.10;;
69750;SDS011;57335;52.288;6.056;2022-07-06T06:42:27;2.47;;;0.93;;
69750;SDS011;57335;52.288;6.056;2022-07-06T06:44:53;2.35;;;0.60;;
69750;SDS011;57335;52.288;6.056;2022-07-06T06:47:19;2.53;;;0.80;;
69750;SDS011;57335;52.288;6.056;2022-07-06T06:49:46;3.95;;;0.82;;
69750;SDS011;57335;52.288;6.056;2022-07-06T06:52:13;3.03;;;0.80;;
69750;SDS011;57335;52.288;6.056;2022-07-06T06:54:59;3.25;;;0.88;;
69750;SDS011;57335;52.288;6.056;2022-07-06T06:57:26;2.15;;;0.90;;
69750;SDS011;57335;52.288;6.056;2022-07-06T06:59:52;4.13;;;0.90;;
69750;SDS011;57335;52.288;6.056;2022-07-06T07:02:19;2.88;;;0.88;;
69750;SDS011;57335;52.288;6.056;2022-07-06T07:04:45;3.83;;;0.70;;
69750;SDS011;57335;52.288;6.056;2022-07-06T07:07:12;3.05;;;0.90;;
69750;SDS011;57335;52.288;6.056;2022-07-06T07:09:38;4.18;;;0.93;;
69750;SDS011;57335;52.288;6.056;2022-07-06T07:12:05;2.63;;;0.70;;
69750;SDS011;57335;52.288;6.056;2022-07-06T07:14:31;2.63;;;0.95;;
69750;SDS011;57335;52.288;6.056;2022-07-06T07:16:58;3.75;;;1.00;;
69750;SDS011;57335;52.288;6.056;2022-07-06T07:19:24;1.85;;;0.70;;
69750;SDS011;57335;52.288;6.056;2022-07-06T07:21:51;3.97;;;0.90;;
69750;SDS011;57335;52.288;6.056;2022-07-06T07:24:18;2.85;;;0.70;;
69750;SDS011;57335;52.288;6.056;2022-07-06T07:26:45;2.80;;;0.80;;
69750;SDS011;57335;52.288;6.056;2022-07-06T07:29:11;2.38;;;0.80;;
69750;SDS011;57335;52.288;6.056;2022-07-06T07:31:38;2.50;;;0.80;;
69750;SDS011;57335;52.288;6.056;2022-07-06T07:34:04;1.73;;;0.60;;
69750;SDS011;57335;52.288;6.056;2022-07-06T07:36:31;3.08;;;0.85;;
69750;SDS011;57335;52.288;6.056;2022-07-06T07:38:57;2.47;;;0.80;;
69750;SDS011;57335;52.288;6.056;2022-07-06T07:41:24;0.50;;;0.45;;
69750;SDS011;57335;52.288;6.056;2022-07-06T07:43:51;1.40;;;0.80;;
69750;SDS011;57335;52.288;6.056;2022-07-06T07:46:17;2.22;;;0.50;;
69750;SDS011;57335;52.288;6.056;2022-07-06T07:48:44;2.17;;;0.50;;
69750;SDS011;57335;52.288;6.056;2022-07-06T07:51:10;5.50;;;0.80;;
69750;SDS011;57335;52.288;6.056;2022-07-06T07:53:37;2.40;;;0.60;;
69750;SDS011;57335;52.288;6.056;2022-07-06T07:56:03;3.35;;;0.70;;
69750;SDS011;57335;52.288;6.056;2022-07-06T07:58:30;1.98;;;0.70;;
69750;SDS011;57335;52.288;6.056;2022-07-06T08:00:57;0.80;;;0.50;;
69750;SDS011;57335;52.288;6.056;2022-07-06T08:03:23;1.83;;;0.60;;
69750;SDS011;57335;52.288;6.056;2022-07-06T08:05:50;0.65;;;0.40;;
69750;SDS011;57335;52.288;6.056;2022-07-06T08:08:16;2.10;;;0.50;;
69750;SDS011;57335;52.288;6.056;2022-07-06T08:10:43;1.65;;;0.43;;
69750;SDS011;57335;52.288;6.056;2022-07-06T08:13:29;0.95;;;0.52;;
69750;SDS011;57335;52.288;6.056;2022-07-06T08:15:56;4.50;;;0.65;;
69750;SDS011;57335;52.288;6.056;2022-07-06T08:18:23;2.03;;;0.70;;
69750;SDS011;57335;52.288;6.056;2022-07-06T08:20:50;2.00;;;0.47;;
69750;SDS011;57335;52.288;6.056;2022-07-06T08:23:36;3.50;;;0.73;;
69750;SDS011;57335;52.288;6.056;2022-07-06T08:26:02;2.50;;;0.50;;
69750;SDS011;57335;52.288;6.056;2022-07-06T08:28:29;2.60;;;0.63;;
69750;SDS011;57335;52.288;6.056;2022-07-06T08:30:56;1.35;;;0.35;;
69750;SDS011;57335;52.288;6.056;2022-07-06T08:33:22;1.83;;;0.60;;
69750;SDS011;57335;52.288;6.056;2022-07-06T08:35:49;2.35;;;0.50;;
69750;SDS011;57335;52.288;6.056;2022-07-06T08:38:16;1.40;;;0.50;;
69750;SDS011;57335;52.288;6.056;2022-07-06T08:40:43;3.13;;;0.70;;
69750;SDS011;57335;52.288;6.056;2022-07-06T08:43:13;3.58;;;0.60;;
69750;SDS011;57335;52.288;6.056;2022-07-06T08:45:39;2.00;;;0.60;;
69750;SDS011;57335;52.288;6.056;2022-07-06T08:48:07;1.17;;;0.40;;
69750;SDS011;57335;52.288;6.056;2022-07-06T08:50:33;2.22;;;0.60;;
69750;SDS011;57335;52.288;6.056;2022-07-06T08:53:00;2.35;;;0.50;;
69750;SDS011;57335;52.288;6.056;2022-07-06T08:55:27;1.45;;;0.52;;
69750;SDS011;57335;52.288;6.056;2022-07-06T08:57:54;1.98;;;0.80;;
69750;SDS011;57335;52.288;6.056;2022-07-06T09:00:22;0.43;;;0.43;;
69750;SDS011;57335;52.288;6.056;2022-07-06T09:02:49;0.82;;;0.50;;
69750;SDS011;57335;52.288;6.056;2022-07-06T09:05:17;3.42;;;0.60;;
69750;SDS011;57335;52.288;6.056;2022-07-06T09:07:45;2.25;;;0.60;;
69750;SDS011;57335;52.288;6.056;2022-07-06T09:10:25;1.35;;;0.43;;
69750;SDS011;57335;52.288;6.056;2022-07-06T09:12:51;2.78;;;0.60;;
69750;SDS011;57335;52.288;6.056;2022-07-06T09:15:18;2.50;;;0.60;;
69750;SDS011;57335;52.288;6.056;2022-07-06T09:17:45;2.15;;;0.60;;
69750;SDS011;57335;52.288;6.056;2022-07-06T09:20:12;1.80;;;0.43;;
69750;SDS011;57335;52.288;6.056;2022-07-06T09:22:39;3.10;;;0.60;;
69750;SDS011;57335;52.288;6.056;2022-07-06T09:25:07;0.73;;;0.43;;
69750;SDS011;57335;52.288;6.056;2022-07-06T09:27:39;1.95;;;0.50;;
69750;SDS011;57335;52.288;6.056;2022-07-06T09:30:11;1.95;;;0.65;;
69750;SDS011;57335;52.288;6.056;2022-07-06T09:32:38;1.52;;;0.60;;
69750;SDS011;57335;52.288;6.056;2022-07-06T09:35:06;3.10;;;0.60;;
69750;SDS011;57335;52.288;6.056;2022-07-06T09:37:32;1.23;;;0.47;;
69750;SDS011;57335;52.288;6.056;2022-07-06T09:39:59;2.28;;;0.60;;
69750;SDS011;57335;52.288;6.056;2022-07-06T09:42:25;1.88;;;0.70;;
69750;SDS011;57335;52.288;6.056;2022-07-06T09:44:53;1.35;;;0.47;;
69750;SDS011;57335;52.288;6.056;2022-07-06T09:47:19;1.90;;;0.68;;
69750;SDS011;57335;52.288;6.056;2022-07-06T09:49:46;2.20;;;0.60;;
69750;SDS011;57335;52.288;6.056;2022-07-06T09:52:12;1.48;;;0.47;;
69750;SDS011;57335;52.288;6.056;2022-07-06T09:54:40;1.70;;;0.70;;
69750;SDS011;57335;52.288;6.056;2022-07-06T09:57:07;1.65;;;0.60;;
69750;SDS011;57335;52.288;6.056;2022-07-06T09:59:35;1.67;;;0.50;;
69750;SDS011;57335;52.288;6.056;2022-07-06T10:02:05;1.95;;;0.50;;
69750;SDS011;57335;52.288;6.056;2022-07-06T10:04:33;3.05;;;0.70;;
69750;SDS011;57335;52.288;6.056;2022-07-06T10:07:01;1.25;;;0.45;;
69750;SDS011;57335;52.288;6.056;2022-07-06T10:09:28;1.48;;;0.60;;
69750;SDS011;57335;52.288;6.056;2022-07-06T10:14:23;0.95;;;0.60;;
69750;SDS011;57335;52.288;6.056;2022-07-06T10:16:51;2.03;;;0.45;;
69750;SDS011;57335;52.288;6.056;2022-07-06T10:19:19;1.95;;;0.55;;
69750;SDS011;57335;52.288;6.056;2022-07-06T10:21:47;3.20;;;0.57;;
69750;SDS011;57335;52.288;6.056;2022-07-06T10:24:14;1.45;;;0.60;;
69750;SDS011;57335;52.288;6.056;2022-07-06T10:26:41;2.78;;;0.70;;
69750;SDS011;57335;52.288;6.056;2022-07-06T10:29:08;1.23;;;0.50;;
69750;SDS011;57335;52.288;6.056;2022-07-06T10:31:36;2.20;;;0.50;;
69750;SDS011;57335;52.288;6.056;2022-07-06T10:34:06;2.90;;;0.60;;
69750;SDS011;57335;52.288;6.056;2022-07-06T10:36:41;1.85;;;0.60;;
69750;SDS011;57335;52.288;6.056;2022-07-06T10:41:37;1.88;;;0.63;;
69750;SDS011;57335;52.288;6.056;2022-07-06T10:44:16;1.73;;;0.52;;
69750;SDS011;57335;52.288;6.056;2022-07-06T10:46:51;1.60;;;0.60;;
69750;SDS011;57335;52.288;6.056;2022-07-06T10:49:22;3.50;;;0.73;;
69750;SDS011;57335;52.288;6.056;2022-07-06T10:52:12;2.47;;;0.60;;
69750;SDS011;57335;52.288;6.056;2022-07-06T10:54:42;2.20;;;0.57;;
69750;SDS011;57335;52.288;6.056;2022-07-06T10:57:10;2.85;;;0.60;;
69750;SDS011;57335;52.288;6.056;2022-07-06T10:59:39;1.50;;;0.50;;
69750;SDS011;57335;52.288;6.056;2022-07-06T11:04:40;2.25;;;0.60;;
69750;SDS011;57335;52.288;6.056;2022-07-06T11:07:08;2.17;;;0.80;;
69750;SDS011;57335;52.288;6.056;2022-07-06T11:09:41;3.17;;;0.70;;
69750;SDS011;57335;52.288;6.056;2022-07-06T11:12:19;2.17;;;0.70;;
69750;SDS011;57335;52.288;6.056;2022-07-06T11:14:47;1.85;;;0.60;;
69750;SDS011;57335;52.288;6.056;2022-07-06T11:17:15;2.15;;;0.70;;
69750;SDS011;57335;52.288;6.056;2022-07-06T11:19:56;4.65;;;0.80;;
69750;SDS011;57335;52.288;6.056;2022-07-06T11:22:24;1.65;;;0.60;;
69750;SDS011;57335;52.288;6.056;2022-07-06T11:24:53;1.15;;;0.50;;
69750;SDS011;57335;52.288;6.056;2022-07-06T11:27:22;3.17;;;0.73;;
69750;SDS011;57335;52.288;6.056;2022-07-06T11:29:49;2.63;;;0.68;;
69750;SDS011;57335;52.288;6.056;2022-07-06T11:32:16;2.05;;;0.60;;
69750;SDS011;57335;52.288;6.056;2022-07-06T11:34:50;3.15;;;0.80;;
69750;SDS011;57335;52.288;6.056;2022-07-06T11:37:17;2.95;;;0.60;;
69750;SDS011;57335;52.288;6.056;2022-07-06T11:39:44;3.95;;;0.63;;
69750;SDS011;57335;52.288;6.056;2022-07-06T11:42:12;1.65;;;0.68;;
69750;SDS011;57335;52.288;6.056;2022-07-06T11:44:43;0.57;;;0.57;;
69750;SDS011;57335;52.288;6.056;2022-07-06T11:47:10;3.08;;;0.50;;
69750;SDS011;57335;52.288;6.056;2022-07-06T11:49:39;2.30;;;0.55;;
69750;SDS011;57335;52.288;6.056;2022-07-06T11:52:08;1.60;;;0.55;;
69750;SDS011;57335;52.288;6.056;2022-07-06T11:54:35;1.52;;;0.60;;
69750;SDS011;57335;52.288;6.056;2022-07-06T11:57:02;1.42;;;0.68;;
69750;SDS011;57335;52.288;6.056;2022-07-06T11:59:30;2.47;;;0.60;;
69750;SDS011;57335;52.288;6.056;2022-07-06T12:04:29;2.33;;;0.57;;
69750;SDS011;57335;52.288;6.056;2022-07-06T12:07:15;2.13;;;0.70;;
69750;SDS011;57335;52.288;6.056;2022-07-06T12:09:43;2.67;;;0.60;;
69750;SDS011;57335;52.288;6.056;2022-07-06T12:12:12;2.25;;;0.60;;
69750;SDS011;57335;52.288;6.056;2022-07-06T12:14:40;2.78;;;0.70;;
69750;SDS011;57335;52.288;6.056;2022-07-06T12:17:11;1.50;;;0.50;;
69750;SDS011;57335;52.288;6.056;2022-07-06T12:19:40;4.97;;;0.85;;
69750;SDS011;57335;52.288;6.056;2022-07-06T12:22:07;3.92;;;0.60;;
69750;SDS011;57335;52.288;6.056;2022-07-06T12:24:35;3.35;;;0.90;;
69750;SDS011;57335;52.288;6.056;2022-07-06T12:27:13;1.77;;;0.60;;
69750;SDS011;57335;52.288;6.056;2022-07-06T12:29:41;2.40;;;0.65;;
69750;SDS011;57335;52.288;6.056;2022-07-06T12:32:15;1.75;;;0.57;;
69750;SDS011;57335;52.288;6.056;2022-07-06T12:34:44;0.70;;;0.60;;
69750;SDS011;57335;52.288;6.056;2022-07-06T12:37:11;2.30;;;0.60;;
69750;SDS011;57335;52.288;6.056;2022-07-06T12:39:41;2.03;;;0.65;;
69750;SDS011;57335;52.288;6.056;2022-07-06T12:42:16;2.00;;;0.60;;
69750;SDS011;57335;52.288;6.056;2022-07-06T12:44:49;2.00;;;0.50;;
69750;SDS011;57335;52.288;6.056;2022-07-06T12:47:17;1.00;;;0.70;;
69750;SDS011;57335;52.288;6.056;2022-07-06T12:52:15;3.05;;;0.60;;
69750;SDS011;57335;52.288;6.056;2022-07-06T12:54:43;2.95;;;0.60;;
69750;SDS011;57335;52.288;6.056;2022-07-06T12:59:54;1.35;;;0.73;;
69750;SDS011;57335;52.288;6.056;2022-07-06T13:05:18;2.35;;;0.60;;
69750;SDS011;57335;52.288;6.056;2022-07-06T13:07:46;2.92;;;0.70;;
69750;SDS011;57335;52.288;6.056;2022-07-06T13:10:14;2.65;;;0.63;;
69750;SDS011;57335;52.288;6.056;2022-07-06T13:12:42;3.17;;;0.70;;
69750;SDS011;57335;52.288;6.056;2022-07-06T13:15:09;0.82;;;0.70;;
69750;SDS011;57335;52.288;6.056;2022-07-06T13:17:36;1.23;;;0.80;;
69750;SDS011;57335;52.288;6.056;2022-07-06T13:20:04;4.18;;;0.80;;
69750;SDS011;57335;52.288;6.056;2022-07-06T13:22:31;3.38;;;0.80;;
69750;SDS011;57335;52.288;6.056;2022-07-06T13:24:58;3.13;;;0.80;;
69750;SDS011;57335;52.288;6.056;2022-07-06T13:27:24;2.15;;;0.80;;
69750;SDS011;57335;52.288;6.056;2022-07-06T13:29:51;3.25;;;0.80;;
69750;SDS011;57335;52.288;6.056;2022-07-06T13:32:18;2.70;;;0.90;;
69750;SDS011;57335;52.288;6.056;2022-07-06T13:34:45;2.45;;;0.70;;
69750;SDS011;57335;52.288;6.056;2022-07-06T13:37:12;1.42;;;0.70;;
69750;SDS011;57335;52.288;6.056;2022-07-06T13:39:38;1.95;;;0.90;;
69750;SDS011;57335;52.288;6.056;2022-07-06T13:42:05;3.05;;;0.90;;
69750;SDS011;57335;52.288;6.056;2022-07-06T13:44:31;4.22;;;1.00;;
69750;SDS011;57335;52.288;6.056;2022-07-06T13:46:58;3.20;;;0.90;;
69750;SDS011;57335;52.288;6.056;2022-07-06T13:49:25;3.97;;;0.88;;
69750;SDS011;57335;52.288;6.056;2022-07-06T13:51:57;1.52;;;0.80;;
69750;SDS011;57335;52.288;6.056;2022-07-06T13:54:24;2.95;;;0.90;;
69750;SDS011;57335;52.288;6.056;2022-07-06T13:56:50;3.63;;;0.80;;
69750;SDS011;57335;52.288;6.056;2022-07-06T13:59:17;0.88;;;0.70;;
69750;SDS011;57335;52.288;6.056;2022-07-06T14:01:43;1.95;;;0.90;;
69750;SDS011;57335;52.288;6.056;2022-07-06T14:04:10;2.10;;;0.90;;
69750;SDS011;57335;52.288;6.056;2022-07-06T14:06:36;2.47;;;0.90;;
69750;SDS011;57335;52.288;6.056;2022-07-06T14:09:03;2.42;;;0.95;;
69750;SDS011;57335;52.288;6.056;2022-07-06T14:11:29;1.95;;;0.90;;
69750;SDS011;57335;52.288;6.056;2022-07-06T14:13:56;3.28;;;1.02;;
69750;SDS011;57335;52.288;6.056;2022-07-06T14:16:22;2.90;;;1.02;;
69750;SDS011;57335;52.288;6.056;2022-07-06T14:18:49;3.65;;;1.20;;
69750;SDS011;57335;52.288;6.056;2022-07-06T14:21:15;2.28;;;0.80;;
69750;SDS011;57335;52.288;6.056;2022-07-06T14:23:42;3.67;;;0.93;;
69750;SDS011;57335;52.288;6.056;2022-07-06T14:26:08;2.33;;;0.80;;
69750;SDS011;57335;52.288;6.056;2022-07-06T14:28:35;2.30;;;1.05;;
69750;SDS011;57335;52.288;6.056;2022-07-06T14:31:02;2.42;;;1.00;;
69750;SDS011;57335;52.288;6.056;2022-07-06T14:33:28;5.25;;;1.00;;
69750;SDS011;57335;52.288;6.056;2022-07-06T14:35:55;1.45;;;0.88;;
69750;SDS011;57335;52.288;6.056;2022-07-06T14:38:21;2.72;;;0.85;;
69750;SDS011;57335;52.288;6.056;2022-07-06T14:40:48;2.13;;;0.90;;
69750;SDS011;57335;52.288;6.056;2022-07-06T14:43:16;3.30;;;0.90;;
69750;SDS011;57335;52.288;6.056;2022-07-06T14:45:46;3.92;;;1.00;;
69750;SDS011;57335;52.288;6.056;2022-07-06T14:48:12;2.40;;;0.90;;
69750;SDS011;57335;52.288;6.056;2022-07-06T14:50:40;3.85;;;0.93;;
69750;SDS011;57335;52.288;6.056;2022-07-06T14:53:06;2.03;;;0.90;;
69750;SDS011;57335;52.288;6.056;2022-07-06T14:55:33;4.20;;;1.10;;
69750;SDS011;57335;52.288;6.056;2022-07-06T14:57:59;3.30;;;1.35;;
69750;SDS011;57335;52.288;6.056;2022-07-06T15:00:26;3.78;;;0.80;;
69750;SDS011;57335;52.288;6.056;2022-07-06T15:02:53;5.93;;;1.10;;
69750;SDS011;57335;52.288;6.056;2022-07-06T15:05:19;4.15;;;1.00;;
69750;SDS011;57335;52.288;6.056;2022-07-06T15:07:46;4.72;;;1.40;;